createdAt,value
2023-01-10T00:01:42.455Z,90.75
2023-01-10T00:04:10.339Z,91.22
2023-01-10T00:06:38.200Z,90.81
2023-01-10T00:09:06.780Z,90.71
2023-01-10T00:11:53.244Z,91.60
2023-01-10T00:14:22.015Z,92.03
2023-01-10T00:16:50.038Z,92.33
2023-01-10T00:19:17.873Z,91.98
2023-01-10T00:21:45.696Z,91.17
2023-01-10T00:24:19.382Z,91.41
2023-01-10T00:26:51.120Z,92.20
2023-01-10T00:29:20.839Z,91.73
2023-01-10T00:31:48.715Z,92.59
2023-01-10T00:34:16.581Z,92.26
2023-01-10T00:36:45.684Z,92.06
2023-01-10T00:39:14.525Z,92.11
2023-01-10T00:42:01.113Z,92.22
2023-01-10T00:44:28.954Z,92.39
2023-01-10T00:46:57.078Z,92.82
2023-01-10T00:49:24.959Z,93.80
2023-01-10T00:51:53.143Z,93.68
2023-01-10T00:54:21.173Z,94.49
2023-01-10T00:56:49.010Z,94.56
2023-01-10T00:59:16.881Z,94.70
2023-01-10T01:01:44.969Z,94.06
2023-01-10T01:04:12.919Z,94.65
2023-01-10T01:06:41.016Z,94.77
2023-01-10T01:09:09.208Z,94.79
2023-01-10T01:11:37.031Z,96.12
2023-01-10T01:14:05.015Z,95.63
2023-01-10T01:16:32.837Z,96.02
2023-01-10T01:19:01.057Z,96.09
2023-01-10T01:21:28.866Z,96.07
2023-01-10T01:23:57.040Z,95.82
2023-01-10T01:26:25.467Z,96.48
2023-01-10T01:28:53.290Z,95.83
2023-01-10T01:31:21.269Z,96.26
2023-01-10T01:33:49.333Z,95.48
2023-01-10T01:36:17.420Z,95.27
2023-01-10T01:38:45.249Z,95.32
2023-01-10T01:41:31.736Z,94.86
2023-01-10T01:44:05.719Z,94.64
2023-01-10T01:46:38.296Z,95.02
2023-01-10T01:49:14.568Z,94.79
2023-01-10T01:51:46.053Z,95.49
2023-01-10T01:54:15.153Z,95.02
2023-01-10T01:56:55.042Z,94.68
2023-01-10T01:59:33.193Z,93.99
2023-01-10T02:02:07.900Z,94.77
2023-01-10T02:05:05.634Z,95.40
2023-01-10T02:07:41.042Z,95.75
2023-01-10T02:10:30.740Z,95.64
2023-01-10T02:13:04.021Z,95.52
2023-01-10T02:15:31.914Z,95.89
2023-01-10T02:18:03.082Z,95.94
2023-01-10T02:20:47.112Z,96.11
2023-01-10T02:23:52.720Z,96.42
2023-01-10T02:26:46.317Z,96.28
2023-01-10T02:29:26.723Z,96.50
2023-01-10T02:32:23.502Z,96.61
2023-01-10T02:35:20.068Z,96.48
2023-01-10T02:38:05.851Z,96.81
2023-01-10T02:40:45.931Z,96.56
2023-01-10T02:43:26.790Z,96.56
2023-01-10T02:46:05.080Z,96.02
2023-01-10T02:48:34.799Z,96.55
2023-01-10T02:51:14.897Z,96.85
2023-01-10T02:53:53.153Z,96.61
2023-01-10T02:56:29.970Z,96.72
2023-01-10T02:59:17.261Z,96.46
2023-01-10T03:02:21.967Z,96.76
2023-01-10T03:05:09.575Z,96.55
2023-01-10T03:07:46.477Z,95.70
2023-01-10T03:10:21.151Z,95.23
2023-01-10T03:12:57.020Z,94.10
2023-01-10T03:15:30.070Z,93.39
2023-01-10T03:18:03.211Z,93.31
2023-01-10T03:20:35.826Z,93.92
2023-01-10T03:23:06.608Z,93.80
2023-01-10T03:25:39.223Z,93.56
2023-01-10T03:28:42.380Z,93.29
2023-01-10T03:31:29.077Z,93.28
2023-01-10T03:33:57.069Z,92.95
2023-01-10T03:36:31.461Z,92.12
2023-01-10T03:39:40.784Z,91.83
2023-01-10T03:43:07.088Z,92.38
2023-01-10T03:45:49.532Z,91.91
2023-01-10T03:48:21.134Z,91.79
2023-01-10T03:50:54.039Z,92.29
2023-01-10T03:53:24.346Z,92.91
2023-01-10T03:55:52.175Z,92.43
2023-01-10T03:58:21.917Z,93.67
2023-01-10T04:00:50.340Z,94.19
2023-01-10T04:03:18.814Z,94.36
2023-01-10T04:05:50.823Z,93.79
2023-01-10T04:08:18.658Z,93.81
2023-01-10T04:10:50.081Z,94.29
2023-01-10T04:13:19.113Z,94.29
2023-01-10T04:15:46.923Z,94.12
2023-01-10T04:18:15.885Z,94.09
2023-01-10T04:20:44.125Z,94.51
2023-01-10T04:23:11.964Z,94.39
2023-01-10T04:25:39.764Z,94.90
2023-01-10T04:28:07.866Z,95.30
2023-01-10T04:30:39.734Z,94.84
2023-01-10T04:33:07.833Z,95.00
2023-01-10T04:35:35.908Z,94.92
2023-01-10T04:38:03.877Z,94.71
2023-01-10T04:40:31.802Z,94.47
2023-01-10T04:42:59.775Z,93.50
2023-01-10T04:45:27.611Z,94.26
2023-01-10T04:47:57.124Z,94.28
2023-01-10T04:50:25.049Z,94.67
2023-01-10T04:52:57.139Z,94.62
2023-01-10T04:55:25.086Z,94.24
2023-01-10T04:57:54.935Z,94.41
2023-01-10T05:00:22.901Z,93.91
2023-01-10T05:02:58.942Z,93.88
2023-01-10T05:05:32.214Z,94.17
2023-01-10T05:08:00.084Z,93.73
2023-01-10T05:10:28.105Z,93.67
2023-01-10T05:13:01.222Z,93.82
2023-01-10T05:15:29.050Z,93.43
2023-01-10T05:18:01.067Z,92.64
2023-01-10T05:20:28.955Z,92.94
2023-01-10T05:22:56.792Z,92.74
2023-01-10T05:25:28.068Z,92.80
2023-01-10T05:27:55.944Z,92.54
2023-01-10T05:30:27.084Z,92.85
2023-01-10T05:32:54.912Z,92.94
2023-01-10T05:35:26.836Z,92.40
2023-01-10T05:37:55.004Z,92.79
2023-01-10T05:40:23.015Z,92.49
2023-01-10T05:42:54.096Z,91.99
2023-01-10T05:45:23.784Z,91.92
2023-01-10T05:47:52.169Z,92.25
2023-01-10T05:50:20.092Z,92.23
2023-01-10T05:52:48.132Z,92.48
2023-01-10T05:55:16.821Z,92.20
2023-01-10T05:57:44.654Z,92.49
2023-01-10T06:00:14.068Z,91.73
2023-01-10T06:02:42.147Z,91.30
2023-01-10T06:05:10.058Z,91.37
2023-01-10T06:07:40.074Z,91.00
2023-01-10T06:10:08.260Z,90.95
2023-01-10T06:12:36.080Z,91.34
2023-01-10T06:15:05.127Z,91.51
2023-01-10T06:17:34.840Z,91.48
2023-01-10T06:20:02.666Z,90.99
2023-01-10T06:22:32.077Z,91.41
2023-01-10T06:25:02.479Z,91.62
2023-01-10T06:30:22.727Z,90.93
2023-01-10T06:32:50.805Z,91.09
2023-01-10T06:35:18.652Z,91.75
2023-01-10T06:37:47.247Z,91.09
2023-01-10T06:40:15.421Z,90.81
2023-01-10T06:42:43.255Z,90.81
2023-01-10T06:45:13.256Z,90.79
2023-01-10T06:47:41.196Z,90.82
2023-01-10T06:50:10.607Z,90.88
2023-01-10T06:52:39.148Z,90.19
2023-01-10T06:55:07.498Z,89.50
2023-01-10T06:57:38.595Z,90.21
2023-01-10T07:00:09.818Z,90.62
2023-01-10T07:02:41.113Z,90.63
2023-01-10T07:05:11.404Z,90.71
2023-01-10T07:07:40.250Z,90.74
2023-01-10T07:10:09.500Z,90.62
2023-01-10T07:12:38.133Z,90.05
2023-01-10T07:15:07.457Z,90.30
2023-01-10T07:17:35.285Z,89.94
2023-01-10T07:20:04.087Z,89.76
2023-01-10T07:22:32.876Z,89.94
2023-01-10T07:25:04.292Z,90.09
2023-01-10T07:27:32.422Z,89.69
2023-01-10T07:30:00.326Z,89.25
2023-01-10T07:35:21.127Z,89.18
2023-01-10T07:37:49.200Z,89.18
2023-01-10T07:40:17.406Z,89.07
2023-01-10T07:42:47.103Z,88.34
2023-01-10T07:45:14.913Z,88.46
2023-01-10T07:47:42.753Z,89.02
2023-01-10T07:50:10.943Z,89.19
2023-01-10T07:52:42.785Z,89.04
2023-01-10T07:55:10.834Z,89.53
2023-01-10T07:57:38.803Z,89.54
2023-01-10T08:00:07.321Z,89.46
2023-01-10T08:02:37.228Z,90.26
2023-01-10T08:05:05.454Z,89.45
2023-01-10T08:07:36.878Z,88.22
2023-01-10T08:10:07.219Z,89.38
2023-01-10T08:12:35.394Z,89.10
2023-01-10T08:15:05.092Z,88.82
2023-01-10T08:17:38.791Z,89.22
2023-01-10T08:20:11.108Z,89.01
2023-01-10T08:22:39.018Z,89.14
2023-01-10T08:25:07.037Z,89.26
2023-01-10T08:27:36.119Z,89.05
2023-01-10T08:30:05.830Z,90.16
2023-01-10T08:32:34.159Z,90.33
2023-01-10T08:35:01.963Z,90.83
2023-01-10T08:37:31.935Z,90.67
2023-01-10T08:39:59.748Z,91.81
2023-01-10T08:42:27.572Z,91.21
2023-01-10T08:44:59.683Z,90.64
2023-01-10T08:47:28.901Z,91.08
2023-01-10T08:49:56.801Z,91.09
2023-01-10T08:52:26.157Z,90.91
2023-01-10T08:54:54.281Z,90.40
2023-01-10T08:57:22.162Z,89.82
2023-01-10T08:59:51.000Z,90.00
2023-01-10T09:02:19.008Z,89.84
2023-01-10T09:04:46.919Z,89.42
2023-01-10T09:07:15.865Z,89.98
2023-01-10T09:09:44.420Z,89.22
2023-01-10T09:12:32.001Z,88.84
2023-01-10T09:14:59.943Z,88.75
2023-01-10T09:17:27.732Z,88.52
2023-01-10T09:19:57.166Z,88.74
2023-01-10T09:22:25.043Z,88.34
2023-01-10T09:24:56.152Z,87.98
2023-01-10T09:27:24.848Z,88.40
2023-01-10T09:29:53.169Z,88.10
2023-01-10T09:32:21.039Z,87.49
2023-01-10T09:34:50.088Z,87.75
2023-01-10T09:37:18.768Z,88.56
2023-01-10T09:39:47.273Z,89.07
2023-01-10T09:42:33.795Z,88.92
2023-01-10T09:45:14.132Z,88.65
2023-01-10T09:47:45.518Z,88.45
2023-01-10T09:50:41.182Z,88.46
2023-01-10T09:53:16.917Z,88.42
2023-01-10T09:56:14.166Z,88.37
2023-01-10T09:58:44.252Z,88.70
2023-01-10T10:01:21.164Z,88.53
2023-01-10T10:04:30.996Z,88.39
2023-01-10T10:06:59.048Z,88.53
2023-01-10T10:09:30.558Z,88.66
2023-01-10T10:12:18.257Z,88.78
2023-01-10T10:15:07.723Z,88.16
2023-01-10T10:17:42.160Z,88.18
2023-01-10T10:20:43.434Z,87.72
2023-01-10T10:23:34.541Z,88.52
2023-01-10T10:26:14.633Z,88.23
2023-01-10T10:28:54.679Z,88.77
2023-01-10T10:31:35.240Z,89.42
2023-01-10T10:37:33.979Z,89.16
2023-01-10T10:40:06.191Z,89.80
2023-01-10T10:46:23.136Z,89.66
2023-01-10T10:48:58.569Z,90.11
2023-01-10T10:54:52.131Z,90.11
2023-01-10T10:57:25.552Z,90.50
2023-01-10T11:00:19.275Z,90.30
2023-01-10T11:02:53.344Z,90.09
2023-01-10T11:05:32.153Z,89.65
2023-01-10T11:08:13.393Z,89.48
2023-01-10T11:11:04.264Z,89.50
2023-01-10T11:13:35.213Z,89.55
2023-01-10T11:16:06.106Z,89.20
2023-01-10T11:18:34.548Z,89.11
2023-01-10T11:21:14.167Z,89.07
2023-01-10T11:23:53.675Z,89.44
2023-01-10T11:26:25.128Z,89.08
2023-01-10T11:29:14.133Z,88.87
2023-01-10T11:31:46.886Z,89.02
2023-01-10T11:34:23.288Z,88.64
2023-01-10T11:36:58.120Z,88.41
2023-01-10T11:39:27.864Z,87.72
2023-01-10T11:41:59.157Z,87.93
2023-01-10T11:44:29.236Z,87.82
2023-01-10T11:47:08.164Z,88.12
2023-01-10T11:49:41.401Z,88.32
2023-01-10T11:52:28.112Z,88.17
2023-01-10T11:55:00.442Z,88.22
2023-01-10T11:57:33.126Z,88.38
2023-01-10T12:00:09.969Z,88.50
2023-01-10T12:02:44.694Z,88.08
2023-01-10T12:05:21.591Z,88.37
2023-01-10T12:11:02.125Z,87.79
2023-01-10T12:13:52.421Z,87.42
2023-01-10T12:16:33.214Z,87.44
2023-01-10T12:19:05.242Z,88.11
2023-01-10T12:21:40.166Z,87.35
2023-01-10T12:24:34.539Z,86.91
2023-01-10T12:27:04.139Z,84.74
2023-01-10T12:29:37.449Z,84.50
2023-01-10T12:32:17.788Z,83.47
2023-01-10T12:34:52.543Z,82.94
2023-01-10T12:37:36.132Z,82.75
2023-01-10T12:40:17.516Z,81.81
2023-01-10T12:43:17.251Z,82.21
2023-01-10T12:46:09.723Z,81.68
2023-01-10T12:48:50.177Z,80.95
2023-01-10T12:51:23.113Z,80.94
2023-01-10T12:54:04.347Z,80.00
2023-01-10T12:56:32.429Z,79.14
2023-01-10T12:59:12.564Z,78.43
2023-01-10T13:01:43.358Z,78.62
2023-01-10T13:04:21.151Z,78.82
2023-01-10T13:06:50.458Z,78.63
2023-01-10T13:09:28.124Z,78.80
2023-01-10T13:12:31.916Z,79.07
2023-01-10T13:15:28.188Z,79.05
2023-01-10T13:18:16.708Z,79.61
2023-01-10T13:20:46.199Z,79.85
2023-01-10T13:23:33.456Z,80.40
2023-01-10T13:26:12.338Z,80.59
2023-01-10T13:28:55.848Z,83.52
2023-01-10T13:31:34.212Z,84.03
2023-01-10T13:34:12.804Z,84.79
2023-01-10T13:36:51.493Z,85.25
2023-01-10T13:39:40.309Z,84.91
2023-01-10T13:42:27.519Z,84.88
2023-01-10T13:45:01.637Z,86.83
2023-01-10T13:47:43.520Z,87.51
2023-01-10T13:50:25.474Z,88.45
2023-01-10T13:53:18.187Z,87.57
2023-01-10T13:55:54.940Z,86.06
2023-01-10T13:58:42.887Z,85.47
2023-01-10T14:01:49.090Z,84.11
2023-01-10T14:04:24.199Z,83.82
2023-01-10T14:07:04.260Z,83.09
2023-01-10T14:09:38.127Z,81.49
2023-01-10T14:12:23.898Z,81.45
2023-01-10T14:15:02.226Z,81.45
2023-01-10T14:17:33.459Z,80.19
2023-01-10T14:20:12.019Z,80.78
2023-01-10T14:22:48.250Z,80.15
2023-01-10T14:28:33.555Z,80.24
2023-01-10T14:31:04.661Z,80.36
2023-01-10T14:33:36.331Z,80.94
2023-01-10T14:36:10.131Z,80.87
2023-01-10T14:38:41.203Z,82.01
2023-01-10T14:41:12.935Z,81.05
2023-01-10T14:43:55.232Z,80.30
2023-01-10T14:46:34.663Z,81.20
2023-01-10T14:49:24.239Z,81.13
2023-01-10T14:52:00.860Z,80.73
2023-01-10T14:54:31.179Z,81.40
2023-01-10T14:56:58.996Z,81.36
2023-01-10T14:59:27.716Z,81.49
2023-01-10T15:02:03.351Z,82.56
2023-01-10T15:04:36.278Z,82.80
2023-01-10T15:07:17.150Z,82.58
2023-01-10T15:09:51.112Z,82.42
2023-01-10T15:12:29.319Z,81.65
2023-01-10T15:15:22.141Z,81.28
2023-01-10T15:17:53.238Z,80.64
2023-01-10T15:20:23.283Z,79.38
2023-01-10T15:23:02.407Z,79.31
2023-01-10T15:25:32.374Z,79.01
2023-01-10T15:28:02.955Z,79.10
2023-01-10T15:30:37.015Z,78.74
2023-01-10T15:33:14.226Z,79.30
2023-01-10T15:35:45.793Z,78.98
2023-01-10T15:38:18.183Z,79.88
2023-01-10T15:40:58.897Z,79.97
2023-01-10T15:43:32.290Z,80.35
2023-01-10T15:46:05.958Z,81.35
2023-01-10T15:48:37.213Z,81.70
2023-01-10T15:51:14.073Z,81.98
2023-01-10T15:53:56.164Z,82.63
2023-01-10T15:56:50.002Z,82.83
2023-01-10T15:59:29.281Z,83.54
2023-01-10T16:02:16.086Z,83.96
2023-01-10T16:04:46.209Z,84.50
2023-01-10T16:07:31.014Z,84.23
2023-01-10T16:10:06.220Z,84.69
2023-01-10T16:12:56.413Z,84.44
2023-01-10T16:15:33.203Z,85.35
2023-01-10T16:18:02.628Z,84.72
2023-01-10T16:20:43.275Z,85.68
2023-01-10T16:23:19.426Z,85.67
2023-01-10T16:25:51.811Z,86.40
2023-01-10T16:28:21.417Z,85.90
2023-01-10T16:30:53.301Z,85.61
2023-01-10T16:33:24.410Z,85.78
2023-01-10T16:35:57.475Z,85.43
2023-01-10T16:38:28.175Z,85.74
2023-01-10T16:47:07.219Z,86.86
2023-01-10T16:49:35.894Z,85.67
2023-01-10T16:54:55.433Z,85.76
2023-01-10T16:57:24.685Z,85.45
2023-01-10T16:59:52.589Z,85.95
2023-01-10T17:02:22.216Z,85.25
2023-01-10T17:04:50.025Z,85.64
2023-01-10T17:07:18.011Z,85.61
2023-01-10T17:09:46.896Z,85.58
2023-01-10T17:15:38.286Z,85.22
2023-01-10T17:18:06.170Z,85.97
2023-01-10T17:20:34.115Z,84.67
2023-01-10T17:23:02.103Z,84.71
2023-01-10T17:25:29.924Z,84.63
2023-01-10T17:27:58.559Z,83.82
2023-01-10T17:30:26.519Z,83.68
2023-01-10T17:32:55.860Z,84.59
2023-01-10T17:35:48.361Z,85.11
2023-01-10T17:38:17.377Z,85.31
2023-01-10T17:40:47.384Z,85.85
2023-01-10T17:43:17.207Z,85.78
2023-01-10T17:45:48.040Z,85.89
2023-01-10T17:48:19.322Z,85.88
2023-01-10T17:50:54.563Z,85.42
2023-01-10T17:53:23.439Z,86.27
2023-01-10T17:55:52.426Z,86.54
2023-01-10T17:58:21.401Z,87.15
2023-01-10T18:00:51.471Z,86.88
2023-01-10T18:03:23.326Z,87.13
2023-01-10T18:05:56.870Z,86.92
2023-01-10T18:08:25.739Z,86.41
2023-01-10T18:11:01.367Z,86.60
2023-01-10T18:13:32.136Z,86.31
2023-01-10T18:16:02.957Z,86.48
2023-01-10T18:18:31.359Z,86.85
2023-01-10T18:21:02.067Z,87.77
2023-01-10T18:23:32.180Z,87.31
2023-01-10T18:26:09.386Z,87.38
2023-01-10T18:28:45.174Z,87.49
2023-01-10T18:31:18.147Z,87.61
2023-01-10T18:33:49.173Z,87.78
2023-01-10T18:36:19.833Z,88.48
2023-01-10T18:41:40.221Z,87.99
2023-01-10T18:44:08.861Z,87.72
2023-01-10T18:46:37.221Z,87.14
2023-01-10T18:49:30.611Z,87.64
2023-01-10T18:52:02.347Z,88.33
2023-01-10T18:54:31.757Z,87.83
2023-01-10T18:57:25.514Z,86.94
2023-01-10T18:59:53.384Z,87.38
2023-01-10T19:02:21.374Z,87.35
2023-01-10T19:04:49.328Z,86.67
2023-01-10T19:07:17.213Z,87.35
2023-01-10T19:09:45.205Z,87.00
2023-01-10T19:12:13.864Z,86.80
2023-01-10T19:14:43.190Z,87.15
2023-01-10T19:17:11.095Z,86.49
2023-01-10T19:19:39.047Z,86.12
2023-01-10T19:22:06.919Z,86.09
2023-01-10T19:24:38.206Z,86.21
2023-01-10T19:27:06.030Z,87.37
2023-01-10T19:29:35.285Z,86.23
2023-01-10T19:32:04.182Z,85.68
2023-01-10T19:34:32.188Z,86.14
2023-01-10T19:37:01.313Z,85.26
2023-01-10T19:39:30.181Z,85.04
2023-01-10T19:41:58.012Z,84.65
2023-01-10T19:44:53.233Z,84.38
2023-01-10T19:47:21.241Z,83.40
2023-01-10T19:49:49.104Z,85.39
2023-01-10T19:52:20.193Z,84.48
2023-01-10T19:54:48.494Z,84.28
2023-01-10T19:57:41.838Z,85.21
2023-01-10T20:00:10.396Z,85.50
2023-01-10T20:05:35.511Z,86.21
2023-01-10T20:08:04.960Z,85.54
2023-01-10T20:10:32.774Z,86.11
2023-01-10T20:13:02.200Z,84.66
2023-01-10T20:15:30.010Z,84.03
2023-01-10T20:20:51.608Z,84.92
2023-01-10T20:23:22.466Z,83.83
2023-01-10T20:26:03.335Z,83.92
2023-01-10T20:28:31.646Z,84.37
2023-01-10T20:31:00.871Z,84.60
2023-01-10T20:33:28.956Z,84.56
2023-01-10T20:36:00.701Z,83.87
2023-01-10T20:38:30.211Z,83.85
2023-01-10T20:41:10.129Z,83.80
2023-01-10T20:43:40.219Z,83.51
2023-01-10T20:46:14.662Z,82.92
2023-01-10T20:48:44.289Z,84.03
2023-01-10T20:51:17.208Z,83.61
2023-01-10T20:53:49.365Z,83.75
2023-01-10T20:56:21.525Z,83.22
2023-01-10T20:58:50.638Z,84.18
2023-01-10T21:01:33.216Z,84.92
2023-01-10T21:04:04.201Z,84.28
2023-01-10T21:06:34.430Z,85.23
2023-01-10T21:09:02.912Z,85.33
2023-01-10T21:11:31.795Z,85.32
2023-01-10T21:14:02.112Z,85.63
2023-01-10T21:16:29.976Z,85.59
2023-01-10T21:19:01.369Z,85.84
2023-01-10T21:21:29.955Z,85.76
2023-01-10T21:23:57.782Z,86.21
2023-01-10T21:26:26.527Z,86.63
2023-01-10T21:28:55.907Z,86.63
2023-01-10T21:31:23.777Z,86.55
2023-01-10T21:33:52.251Z,86.55
2023-01-10T21:36:20.952Z,86.43
2023-01-10T21:38:50.175Z,86.54
2023-01-10T21:41:38.641Z,87.56
2023-01-10T21:44:08.238Z,87.59
2023-01-10T21:46:37.134Z,88.36
2023-01-10T21:49:05.417Z,88.49
2023-01-10T21:51:33.324Z,88.81
2023-01-10T21:54:01.257Z,89.35
2023-01-10T21:56:29.113Z,88.72
2023-01-10T21:58:58.367Z,88.25
2023-01-10T22:01:26.282Z,88.47
2023-01-10T22:03:55.362Z,88.47
2023-01-10T22:06:23.373Z,88.36
2023-01-10T22:08:52.896Z,88.22
2023-01-10T22:11:20.994Z,88.74
2023-01-10T22:13:54.231Z,89.01
2023-01-10T22:16:23.926Z,89.29
2023-01-10T22:18:52.429Z,89.76
2023-01-10T22:21:20.497Z,89.83
2023-01-10T22:23:48.972Z,89.95
2023-01-10T22:26:18.311Z,89.76
2023-01-10T22:29:11.738Z,89.98
2023-01-10T22:31:42.263Z,89.82
2023-01-10T22:34:10.958Z,90.51
2023-01-10T22:36:39.187Z,90.83
2023-01-10T22:39:08.189Z,90.60
2023-01-10T22:41:38.223Z,90.58
2023-01-10T22:44:31.512Z,91.19
2023-01-10T22:46:59.387Z,91.37
2023-01-10T22:49:27.285Z,91.10
2023-01-10T22:51:55.431Z,90.73
2023-01-10T22:54:23.295Z,91.09
2023-01-10T22:56:51.907Z,91.01
2023-01-10T22:59:23.442Z,91.63
2023-01-10T23:01:51.270Z,91.86
2023-01-10T23:04:44.573Z,91.79
2023-01-10T23:07:13.051Z,92.00
2023-01-10T23:09:41.280Z,91.78
2023-01-10T23:12:09.972Z,91.83
2023-01-10T23:14:37.966Z,93.02
2023-01-10T23:17:07.285Z,92.85
2023-01-10T23:19:35.108Z,92.42
2023-01-10T23:22:04.223Z,92.70
2023-01-10T23:24:32.127Z,93.13
2023-01-10T23:27:02.043Z,92.86
2023-01-10T23:29:29.916Z,92.50
2023-01-10T23:32:02.298Z,92.52
2023-01-10T23:34:31.907Z,92.85
2023-01-10T23:37:03.469Z,92.91
2023-01-10T23:39:31.373Z,93.20
2023-01-10T23:41:59.961Z,93.05
2023-01-10T23:44:31.583Z,93.41
2023-01-10T23:46:59.898Z,93.84
2023-01-10T23:49:27.711Z,92.99
2023-01-10T23:51:55.541Z,93.03
2023-01-10T23:54:23.885Z,93.05
